createdAt,value
2023-06-27T00:00:26.644Z,44.65
2023-06-27T00:02:57.261Z,44.98
2023-06-27T00:05:25.441Z,44.78
2023-06-27T00:07:53.408Z,44.82
2023-06-27T00:10:24.003Z,44.72
2023-06-27T00:12:54.682Z,45.01
2023-06-27T00:15:22.654Z,44.62
2023-06-27T00:17:53.183Z,44.68
2023-06-27T00:20:22.798Z,44.82
2023-06-27T00:22:50.773Z,44.94
2023-06-27T00:25:20.423Z,45.03
2023-06-27T00:27:53.023Z,45.04
2023-06-27T00:30:23.897Z,45.19
2023-06-27T00:32:52.006Z,44.98
2023-06-27T00:35:19.980Z,45.08
2023-06-27T00:37:49.252Z,44.87
2023-06-27T00:40:17.536Z,45.08
2023-06-27T00:42:48.179Z,45.22
2023-06-27T00:45:16.179Z,45.07
2023-06-27T00:47:44.260Z,44.88
2023-06-27T00:50:12.403Z,45.08
2023-06-27T00:52:42.079Z,45.21
2023-06-27T00:55:12.143Z,45.42
2023-06-27T00:57:40.859Z,45.07
2023-06-27T01:00:13.268Z,45.02
2023-06-27T01:02:41.518Z,45.14
2023-06-27T01:05:10.071Z,45.41
2023-06-27T01:07:43.792Z,45.56
2023-06-27T01:10:18.024Z,45.49
2023-06-27T01:12:50.870Z,45.25
2023-06-27T01:15:19.318Z,45.38
2023-06-27T01:17:47.942Z,45.66
2023-06-27T01:20:16.579Z,45.26
2023-06-27T01:22:49.737Z,45.59
2023-06-27T01:25:19.340Z,45.68
2023-06-27T01:27:47.395Z,45.49
2023-06-27T01:30:18.872Z,45.78
2023-06-27T01:32:51.726Z,45.48
2023-06-27T01:35:28.488Z,45.54
2023-06-27T01:38:01.244Z,45.62
2023-06-27T01:40:34.182Z,45.78
2023-06-27T01:43:10.127Z,45.93
2023-06-27T01:45:41.279Z,45.58
2023-06-27T01:48:10.250Z,45.47
2023-06-27T01:50:38.369Z,45.58
2023-06-27T01:53:06.501Z,45.79
2023-06-27T01:55:35.904Z,45.83
2023-06-27T01:58:04.054Z,45.73
2023-06-27T02:00:32.058Z,45.85
2023-06-27T02:03:00.127Z,45.70
2023-06-27T02:05:28.173Z,46.00
2023-06-27T02:07:56.213Z,45.87
2023-06-27T02:10:24.599Z,46.05
2023-06-27T02:12:54.103Z,45.75
2023-06-27T02:15:22.106Z,45.86
2023-06-27T02:17:52.652Z,46.07
2023-06-27T02:20:20.655Z,45.82
2023-06-27T02:22:48.711Z,45.89
2023-06-27T02:25:16.866Z,45.67
2023-06-27T02:27:44.869Z,45.92
2023-06-27T02:30:14.720Z,45.66
2023-06-27T02:32:42.844Z,46.00
2023-06-27T02:35:11.289Z,46.07
2023-06-27T02:37:39.251Z,46.21
2023-06-27T02:40:08.450Z,46.17
2023-06-27T02:42:36.418Z,46.24
2023-06-27T02:45:04.782Z,46.11
2023-06-27T02:47:34.777Z,46.11
2023-06-27T02:50:03.792Z,45.95
2023-06-27T02:52:31.802Z,46.04
2023-06-27T02:54:59.795Z,46.08
2023-06-27T02:57:27.860Z,46.36
2023-06-27T02:59:55.878Z,45.92
2023-06-27T03:02:23.950Z,46.12
2023-06-27T03:04:53.930Z,46.29
2023-06-27T03:07:21.919Z,46.04
2023-06-27T03:09:49.888Z,45.86
2023-06-27T03:12:17.929Z,46.20
2023-06-27T03:14:53.685Z,46.07
2023-06-27T03:17:27.220Z,46.44
2023-06-27T03:19:56.651Z,46.05
2023-06-27T03:22:24.683Z,46.12
2023-06-27T03:24:52.704Z,45.98
2023-06-27T03:27:23.512Z,46.10
2023-06-27T03:29:51.632Z,46.19
2023-06-27T03:32:19.603Z,46.29
2023-06-27T03:34:48.368Z,46.04
2023-06-27T03:37:18.575Z,46.13
2023-06-27T03:39:46.694Z,46.34
2023-06-27T03:42:16.324Z,46.49
2023-06-27T03:44:44.292Z,46.35
2023-06-27T03:47:12.536Z,46.44
2023-06-27T03:49:43.508Z,46.29
2023-06-27T03:52:11.627Z,46.56
2023-06-27T03:54:41.001Z,46.27
2023-06-27T03:57:09.196Z,46.52
2023-06-27T03:59:37.152Z,46.49
2023-06-27T04:02:05.172Z,46.26
2023-06-27T04:04:35.493Z,46.24
2023-06-27T04:07:03.718Z,46.39
2023-06-27T04:09:31.670Z,46.34
2023-06-27T04:12:01.009Z,46.64
2023-06-27T04:14:29.223Z,46.51
2023-06-27T04:16:57.309Z,46.57
2023-06-27T04:19:25.347Z,46.25
2023-06-27T04:21:53.392Z,46.65
2023-06-27T04:24:21.388Z,46.39
2023-06-27T04:26:49.330Z,46.71
2023-06-27T04:29:18.691Z,46.38
2023-06-27T04:31:46.718Z,46.58
2023-06-27T04:34:14.831Z,46.48
2023-06-27T04:36:43.015Z,46.73
2023-06-27T04:39:14.257Z,46.73
2023-06-27T04:41:42.262Z,46.54
2023-06-27T04:44:10.208Z,46.91
2023-06-27T04:46:42.680Z,46.75
2023-06-27T04:49:10.668Z,46.37
2023-06-27T04:51:42.433Z,46.57
2023-06-27T04:54:10.451Z,46.61
2023-06-27T04:56:38.482Z,46.68
2023-06-27T04:59:06.434Z,46.55
2023-06-27T05:01:34.500Z,46.55
2023-06-27T05:04:06.397Z,46.67
2023-06-27T05:06:34.934Z,46.92
2023-06-27T05:09:04.741Z,46.98
2023-06-27T05:11:32.726Z,46.73
2023-06-27T05:14:00.717Z,46.90
2023-06-27T05:16:28.701Z,46.47
2023-06-27T05:18:56.702Z,46.89
2023-06-27T05:21:26.060Z,46.91
2023-06-27T05:23:54.050Z,46.66
2023-06-27T05:26:21.988Z,46.79
2023-06-27T05:28:49.951Z,46.91
2023-06-27T05:31:18.115Z,46.67
2023-06-27T05:33:47.053Z,46.89
2023-06-27T05:36:15.019Z,46.94
2023-06-27T05:38:44.409Z,47.03
2023-06-27T05:41:14.715Z,47.06
2023-06-27T05:43:42.620Z,47.08
2023-06-27T05:46:13.581Z,47.28
2023-06-27T05:48:41.813Z,47.31
2023-06-27T05:51:10.742Z,47.03
2023-06-27T05:53:38.683Z,47.32
2023-06-27T05:56:08.471Z,47.33
2023-06-27T05:58:37.208Z,47.61
2023-06-27T06:01:05.411Z,48.40
2023-06-27T06:03:34.968Z,48.99
2023-06-27T06:06:06.151Z,49.34
2023-06-27T06:08:36.328Z,49.47
2023-06-27T06:11:04.352Z,50.14
2023-06-27T06:13:33.701Z,50.46
2023-06-27T06:16:01.705Z,50.56
2023-06-27T06:18:29.785Z,50.87
2023-06-27T06:20:57.712Z,51.18
2023-06-27T06:23:25.746Z,51.38
2023-06-27T06:25:53.871Z,51.68
2023-06-27T06:28:21.907Z,51.90
2023-06-27T06:30:51.415Z,51.80
2023-06-27T06:33:19.432Z,52.15
2023-06-27T06:35:47.407Z,51.54
2023-06-27T06:38:15.408Z,51.71
2023-06-27T06:40:44.935Z,52.21
2023-06-27T06:43:12.934Z,52.20
2023-06-27T06:45:41.204Z,51.99
2023-06-27T06:48:10.718Z,51.88
2023-06-27T06:50:39.150Z,51.55
2023-06-27T06:53:07.446Z,51.29
2023-06-27T06:55:35.397Z,51.22
2023-06-27T06:58:03.406Z,51.43
2023-06-27T07:00:31.382Z,50.87
2023-06-27T07:02:59.882Z,50.77
2023-06-27T07:05:29.312Z,50.91
2023-06-27T07:07:57.960Z,50.79
2023-06-27T07:10:25.904Z,50.51
2023-06-27T07:12:55.661Z,50.30
2023-06-27T07:15:25.034Z,50.66
2023-06-27T07:17:56.052Z,49.83
2023-06-27T07:20:24.468Z,50.16
2023-06-27T07:22:54.656Z,49.23
2023-06-27T07:25:22.858Z,48.88
2023-06-27T07:27:53.944Z,49.19
2023-06-27T07:30:24.894Z,49.24
2023-06-27T07:32:53.040Z,49.11
2023-06-27T07:35:21.092Z,48.86
2023-06-27T07:37:49.104Z,49.02
2023-06-27T07:40:18.570Z,48.87
2023-06-27T07:42:46.549Z,48.25
2023-06-27T07:45:14.572Z,48.16
2023-06-27T07:47:42.623Z,47.76
2023-06-27T07:50:11.472Z,46.37
2023-06-27T07:52:40.938Z,46.27
2023-06-27T07:55:11.379Z,46.56
2023-06-27T07:57:40.765Z,46.19
2023-06-27T08:00:10.330Z,46.30
2023-06-27T08:02:38.437Z,46.45
2023-06-27T08:05:08.025Z,46.29
2023-06-27T08:07:37.127Z,46.33
2023-06-27T08:10:05.748Z,45.52
2023-06-27T08:12:33.775Z,45.62
2023-06-27T08:15:03.206Z,45.84
2023-06-27T08:17:31.646Z,45.46
2023-06-27T08:19:59.645Z,45.10
2023-06-27T08:22:28.221Z,45.25
2023-06-27T08:24:56.209Z,45.16
2023-06-27T08:27:25.130Z,45.36
2023-06-27T08:29:53.105Z,45.79
2023-06-27T08:32:22.474Z,45.34
2023-06-27T08:34:52.943Z,45.51
2023-06-27T08:37:22.542Z,44.52
2023-06-27T08:39:54.050Z,44.97
2023-06-27T08:42:22.073Z,45.19
2023-06-27T08:44:50.019Z,45.36
2023-06-27T08:47:21.938Z,45.75
2023-06-27T08:49:53.374Z,44.62
2023-06-27T08:52:23.116Z,43.92
2023-06-27T08:54:55.288Z,43.86
2023-06-27T08:57:26.036Z,43.43
2023-06-27T08:59:57.812Z,43.00
2023-06-27T09:02:27.969Z,43.73
2023-06-27T09:04:57.623Z,44.39
2023-06-27T09:07:26.600Z,44.14
2023-06-27T09:09:55.732Z,44.75
2023-06-27T09:12:25.086Z,45.35
2023-06-27T09:14:53.050Z,45.40
2023-06-27T09:17:21.670Z,45.26
2023-06-27T09:19:49.659Z,44.93
2023-06-27T09:22:24.547Z,44.88
2023-06-27T09:24:52.537Z,45.41
2023-06-27T09:27:31.063Z,45.36
2023-06-27T09:30:03.673Z,45.34
2023-06-27T09:32:31.758Z,45.49
2023-06-27T09:35:02.505Z,45.36
2023-06-27T09:40:19.298Z,45.27
2023-06-27T09:42:53.407Z,45.74
2023-06-27T09:45:25.001Z,45.45
2023-06-27T09:47:55.581Z,45.56
2023-06-27T09:50:26.694Z,45.58
2023-06-27T09:52:57.793Z,45.83
2023-06-27T09:55:26.196Z,45.46
2023-06-27T09:57:55.321Z,45.76
2023-06-27T10:00:24.089Z,45.36
2023-06-27T10:02:53.203Z,45.53
2023-06-27T10:05:22.342Z,45.72
2023-06-27T10:07:55.886Z,45.12
2023-06-27T10:10:27.556Z,45.56
2023-06-27T10:12:56.303Z,45.42
2023-06-27T10:15:24.471Z,45.66
2023-06-27T10:17:52.604Z,45.61
2023-06-27T10:20:20.952Z,45.35
2023-06-27T10:22:51.162Z,45.21
2023-06-27T10:25:23.146Z,45.16
2023-06-27T10:27:51.389Z,45.57
2023-06-27T10:30:27.341Z,44.90
2023-06-27T10:33:12.038Z,45.40
2023-06-27T10:35:52.011Z,45.07
2023-06-27T10:38:20.884Z,45.00
2023-06-27T10:41:25.138Z,45.08
2023-06-27T10:43:54.796Z,44.63
2023-06-27T10:46:24.328Z,44.66
2023-06-27T10:48:56.208Z,44.65
2023-06-27T10:51:26.097Z,44.92
2023-06-27T10:54:13.718Z,44.75
2023-06-27T10:56:44.403Z,44.51
2023-06-27T10:59:13.916Z,44.27
2023-06-27T11:01:46.066Z,44.65
2023-06-27T11:04:22.855Z,44.38
2023-06-27T11:06:52.606Z,44.39
2023-06-27T11:09:20.765Z,44.45
2023-06-27T11:11:56.729Z,44.33
2023-06-27T11:14:39.766Z,44.16
2023-06-27T11:17:08.054Z,44.62
2023-06-27T11:19:38.136Z,44.58
2023-06-27T11:22:10.017Z,44.62
2023-06-27T11:24:38.643Z,44.45
2023-06-27T11:27:09.306Z,44.21
2023-06-27T11:29:42.921Z,44.50
2023-06-27T11:32:11.924Z,44.10
2023-06-27T11:34:42.703Z,44.16
2023-06-27T11:37:12.968Z,44.32
2023-06-27T11:39:41.056Z,44.22
2023-06-27T11:42:10.706Z,44.25
2023-06-27T11:44:38.682Z,44.41
2023-06-27T11:47:07.818Z,44.21
2023-06-27T11:49:36.444Z,44.27
2023-06-27T11:52:04.999Z,44.15
2023-06-27T11:54:33.007Z,43.87
2023-06-27T11:57:03.118Z,43.87
2023-06-27T11:59:33.670Z,44.25
2023-06-27T12:02:03.145Z,43.97
2023-06-27T12:04:31.216Z,44.09
2023-06-27T12:07:18.704Z,44.08
2023-06-27T12:10:05.529Z,43.92
2023-06-27T12:12:38.503Z,44.04
2023-06-27T12:15:15.860Z,43.91
2023-06-27T12:18:00.442Z,43.82
2023-06-27T12:20:43.002Z,43.39
2023-06-27T12:23:11.545Z,41.32
2023-06-27T12:25:42.191Z,40.69
2023-06-27T12:28:10.173Z,40.69
2023-06-27T12:30:42.558Z,40.86
2023-06-27T12:33:13.626Z,41.92
2023-06-27T12:35:41.911Z,41.91
2023-06-27T12:38:09.901Z,42.65
2023-06-27T12:40:38.017Z,43.04
2023-06-27T12:43:07.493Z,43.03
2023-06-27T12:45:41.527Z,43.40
2023-06-27T12:48:13.419Z,43.38
2023-06-27T12:50:41.715Z,43.55
2023-06-27T12:53:09.979Z,43.67
2023-06-27T12:55:41.025Z,43.60
2023-06-27T12:58:09.102Z,43.67
2023-06-27T13:00:39.280Z,43.44
2023-06-27T13:03:17.605Z,43.73
2023-06-27T13:05:48.464Z,43.58
2023-06-27T13:08:20.249Z,43.56
2023-06-27T13:10:49.222Z,43.42
2023-06-27T13:13:17.287Z,43.62
2023-06-27T13:15:48.785Z,43.64
2023-06-27T13:18:21.938Z,43.23
2023-06-27T13:20:52.367Z,43.53
2023-06-27T13:23:23.111Z,43.53
2023-06-27T13:25:52.238Z,43.33
2023-06-27T13:28:20.223Z,43.21
2023-06-27T13:30:48.254Z,43.49
2023-06-27T13:33:16.585Z,43.46
2023-06-27T13:35:44.497Z,43.35
2023-06-27T13:38:14.916Z,43.40
2023-06-27T13:40:43.217Z,43.68
2023-06-27T13:43:13.068Z,43.28
2023-06-27T13:45:47.944Z,43.28
2023-06-27T13:48:16.448Z,43.32
2023-06-27T13:50:44.610Z,43.35
2023-06-27T13:53:14.352Z,43.26
2023-06-27T13:55:45.036Z,43.11
2023-06-27T13:58:13.122Z,43.05
2023-06-27T14:00:41.864Z,43.31
2023-06-27T14:03:10.296Z,43.23
2023-06-27T14:05:38.413Z,43.42
2023-06-27T14:08:08.714Z,43.54
2023-06-27T14:10:38.320Z,43.55
2023-06-27T14:13:08.636Z,43.34
2023-06-27T14:15:38.855Z,43.41
2023-06-27T14:18:07.652Z,43.17
2023-06-27T14:20:35.742Z,43.35
2023-06-27T14:23:05.624Z,43.46
2023-06-27T14:25:34.108Z,43.24
2023-06-27T14:28:04.646Z,43.46
2023-06-27T14:30:33.321Z,43.09
2023-06-27T14:33:01.368Z,43.21
2023-06-27T14:35:29.454Z,43.31
2023-06-27T14:37:57.418Z,43.30
2023-06-27T14:40:25.585Z,43.09
2023-06-27T14:42:56.227Z,43.45
2023-06-27T14:45:25.600Z,43.11
2023-06-27T14:47:55.508Z,43.05
2023-06-27T14:50:23.831Z,43.26
2023-06-27T14:52:51.916Z,42.63
2023-06-27T14:55:22.161Z,42.63
2023-06-27T14:57:50.137Z,42.94
2023-06-27T15:00:20.607Z,42.85
2023-06-27T15:02:50.558Z,43.10
2023-06-27T15:05:23.413Z,43.03
2023-06-27T15:08:11.373Z,42.80
2023-06-27T15:10:46.470Z,42.83
2023-06-27T15:13:18.972Z,42.97
2023-06-27T15:16:07.049Z,42.67
2023-06-27T15:18:40.223Z,42.74
2023-06-27T15:21:12.410Z,42.84
2023-06-27T15:23:44.490Z,42.80
2023-06-27T15:26:12.582Z,42.98
2023-06-27T15:28:40.626Z,42.92
2023-06-27T15:31:14.424Z,42.70
2023-06-27T15:33:47.895Z,43.15
2023-06-27T15:36:19.879Z,40.76
2023-06-27T15:38:48.364Z,40.43
2023-06-27T15:41:16.323Z,41.02
2023-06-27T15:43:45.039Z,41.58
2023-06-27T15:46:13.076Z,42.34
2023-06-27T15:48:41.103Z,42.78
2023-06-27T15:51:11.887Z,42.70
2023-06-27T15:53:39.987Z,42.65
2023-06-27T15:56:11.472Z,42.53
2023-06-27T15:58:39.514Z,42.75
2023-06-27T16:01:08.607Z,41.23
2023-06-27T16:03:36.766Z,41.01
2023-06-27T16:06:04.974Z,41.19
2023-06-27T16:08:34.444Z,40.79
2023-06-27T16:11:02.434Z,41.24
2023-06-27T16:13:30.389Z,41.06
2023-06-27T16:15:58.730Z,40.98
2023-06-27T16:18:26.768Z,40.79
2023-06-27T16:20:54.804Z,40.99
2023-06-27T16:23:23.021Z,40.23
2023-06-27T16:25:55.427Z,40.16
2023-06-27T16:28:23.517Z,39.74
2023-06-27T16:30:51.507Z,39.90
2023-06-27T16:33:19.509Z,40.20
2023-06-27T16:35:47.504Z,39.36
2023-06-27T16:38:15.439Z,38.75
2023-06-27T16:40:43.690Z,38.58
2023-06-27T16:43:13.620Z,38.36
2023-06-27T16:45:41.752Z,38.76
2023-06-27T16:48:10.029Z,38.73
2023-06-27T16:50:39.113Z,38.91
2023-06-27T16:53:09.410Z,38.67
2023-06-27T16:55:37.525Z,38.71
2023-06-27T16:58:05.559Z,38.88
2023-06-27T17:00:34.979Z,38.95
2023-06-27T17:03:04.424Z,38.84
2023-06-27T17:05:32.576Z,38.43
2023-06-27T17:08:00.529Z,38.07
2023-06-27T17:10:28.664Z,38.42
2023-06-27T17:12:56.646Z,38.11
2023-06-27T17:15:24.699Z,38.26
2023-06-27T17:17:55.926Z,38.62
2023-06-27T17:20:24.875Z,38.82
2023-06-27T17:22:52.874Z,38.80
2023-06-27T17:25:21.021Z,38.74
2023-06-27T17:27:49.005Z,39.29
2023-06-27T17:30:17.053Z,38.97
2023-06-27T17:32:47.686Z,38.39
2023-06-27T17:35:17.135Z,38.89
2023-06-27T17:37:46.680Z,38.48
2023-06-27T17:40:15.310Z,38.17
2023-06-27T17:42:45.915Z,37.92
2023-06-27T17:45:14.138Z,38.57
2023-06-27T17:47:42.323Z,38.33
2023-06-27T17:50:12.930Z,37.63
2023-06-27T17:52:43.243Z,37.50
2023-06-27T17:55:11.937Z,37.71
2023-06-27T17:57:40.076Z,37.78
2023-06-27T18:00:09.403Z,37.84
2023-06-27T18:02:39.336Z,37.75
2023-06-27T18:05:07.903Z,38.10
2023-06-27T18:07:38.807Z,38.18
2023-06-27T18:10:13.258Z,38.29
2023-06-27T18:12:41.317Z,38.46
2023-06-27T18:15:10.340Z,38.45
2023-06-27T18:17:38.362Z,38.66
2023-06-27T18:20:10.560Z,38.92
2023-06-27T18:22:38.590Z,38.91
2023-06-27T18:25:09.130Z,38.88
2023-06-27T18:27:38.038Z,38.76
2023-06-27T18:30:07.488Z,39.27
2023-06-27T18:32:35.579Z,39.45
2023-06-27T18:35:03.650Z,39.02
2023-06-27T18:37:31.639Z,38.91
2023-06-27T18:39:59.744Z,39.52
2023-06-27T18:42:29.106Z,39.66
2023-06-27T18:44:57.304Z,39.28
2023-06-27T18:47:25.293Z,39.46
2023-06-27T18:49:53.516Z,39.84
2023-06-27T18:52:21.627Z,39.76
2023-06-27T18:54:49.618Z,39.74
2023-06-27T18:57:19.955Z,39.58
2023-06-27T18:59:49.317Z,39.37
2023-06-27T19:02:17.390Z,39.67
2023-06-27T19:04:45.548Z,39.46
2023-06-27T19:07:13.704Z,40.05
2023-06-27T19:09:42.050Z,39.75
2023-06-27T19:12:12.874Z,40.14
2023-06-27T19:14:40.963Z,40.08
2023-06-27T19:17:10.370Z,40.67
2023-06-27T19:19:38.775Z,40.54
2023-06-27T19:22:07.493Z,40.56
2023-06-27T19:24:35.590Z,40.76
2023-06-27T19:27:04.979Z,40.70
2023-06-27T19:29:33.111Z,40.91
2023-06-27T19:32:01.702Z,41.06
2023-06-27T19:34:31.113Z,41.01
2023-06-27T19:36:59.103Z,41.27
2023-06-27T19:39:27.702Z,41.96
2023-06-27T19:41:56.348Z,41.80
2023-06-27T19:44:24.475Z,41.99
2023-06-27T19:46:53.645Z,42.26
2023-06-27T19:49:21.634Z,42.01
2023-06-27T19:51:53.856Z,42.28
2023-06-27T19:54:21.894Z,41.92
2023-06-27T19:56:49.925Z,42.13
2023-06-27T19:59:20.809Z,42.11
2023-06-27T20:01:51.832Z,42.00
2023-06-27T20:04:21.068Z,41.53
2023-06-27T20:06:49.531Z,41.41
2023-06-27T20:09:21.655Z,41.45
2023-06-27T20:11:49.596Z,41.54
2023-06-27T20:14:17.608Z,41.58
2023-06-27T20:16:45.779Z,41.42
2023-06-27T20:19:13.743Z,41.20
2023-06-27T20:21:41.700Z,41.39
2023-06-27T20:24:10.477Z,41.53
2023-06-27T20:26:39.823Z,41.55
2023-06-27T20:29:08.120Z,41.33
2023-06-27T20:31:36.264Z,41.46
2023-06-27T20:34:04.361Z,41.42
2023-06-27T20:36:32.338Z,41.86
2023-06-27T20:39:00.276Z,41.73
2023-06-27T20:41:28.247Z,41.60
2023-06-27T20:43:58.572Z,41.67
2023-06-27T20:46:26.560Z,41.64
2023-06-27T20:48:54.583Z,41.88
2023-06-27T20:51:22.550Z,42.16
2023-06-27T20:53:50.502Z,42.26
2023-06-27T20:56:18.725Z,42.08
2023-06-27T20:58:46.688Z,41.95
2023-06-27T21:01:16.181Z,42.19
2023-06-27T21:03:44.459Z,42.28
2023-06-27T21:06:17.876Z,42.27
2023-06-27T21:08:46.960Z,42.39
2023-06-27T21:11:15.268Z,42.80
2023-06-27T21:13:44.373Z,42.74
2023-06-27T21:16:13.128Z,42.81
2023-06-27T21:18:42.816Z,42.88
2023-06-27T21:21:10.828Z,42.93
2023-06-27T21:23:41.754Z,42.72
2023-06-27T21:26:09.770Z,42.93
2023-06-27T21:28:37.892Z,43.16
2023-06-27T21:31:07.921Z,42.92
2023-06-27T21:33:35.978Z,43.02
2023-06-27T21:36:05.700Z,42.81
2023-06-27T21:38:33.662Z,43.08
2023-06-27T21:41:01.726Z,42.92
2023-06-27T21:43:29.723Z,43.20
2023-06-27T21:45:57.726Z,43.11
2023-06-27T21:48:25.727Z,43.48
2023-06-27T21:50:53.798Z,43.27
2023-06-27T21:53:23.240Z,43.38
2023-06-27T21:55:51.332Z,43.35
2023-06-27T21:58:22.099Z,43.33
2023-06-27T22:00:50.191Z,43.31
2023-06-27T22:03:19.977Z,43.43
2023-06-27T22:05:49.281Z,43.58
2023-06-27T22:08:17.528Z,43.66
2023-06-27T22:10:47.005Z,43.88
2023-06-27T22:13:15.004Z,43.75
2023-06-27T22:15:43.012Z,43.64
2023-06-27T22:18:11.361Z,43.78
2023-06-27T22:20:39.749Z,44.17
2023-06-27T22:23:07.994Z,43.64
2023-06-27T22:25:35.948Z,44.04
2023-06-27T22:28:05.778Z,44.11
2023-06-27T22:30:33.799Z,43.89
2023-06-27T22:33:01.869Z,43.88
2023-06-27T22:35:29.898Z,44.17
2023-06-27T22:37:58.032Z,43.95
2023-06-27T22:40:29.104Z,44.07
2023-06-27T22:42:57.161Z,44.27
2023-06-27T22:45:26.760Z,44.27
2023-06-27T22:47:54.730Z,44.01
2023-06-27T22:50:22.903Z,44.29
2023-06-27T22:52:50.903Z,43.86
2023-06-27T22:55:19.110Z,44.03
2023-06-27T22:57:50.427Z,44.28
2023-06-27T23:00:19.274Z,44.08
2023-06-27T23:02:48.761Z,44.29
2023-06-27T23:05:16.889Z,44.41
2023-06-27T23:07:45.467Z,44.44
2023-06-27T23:10:13.402Z,44.44
2023-06-27T23:12:41.381Z,44.23
2023-06-27T23:15:09.669Z,44.38
2023-06-27T23:17:37.716Z,44.23
2023-06-27T23:20:09.548Z,44.23
2023-06-27T23:22:38.113Z,44.52
2023-06-27T23:25:07.935Z,44.38
2023-06-27T23:27:36.633Z,44.61
2023-06-27T23:30:06.444Z,44.49
2023-06-27T23:32:34.410Z,44.37
2023-06-27T23:35:02.558Z,44.58
2023-06-27T23:37:32.294Z,44.59
2023-06-27T23:40:00.279Z,44.80
2023-06-27T23:42:28.308Z,44.50
2023-06-27T23:44:56.262Z,44.46
2023-06-27T23:47:24.268Z,44.64
2023-06-27T23:50:02.755Z,44.82
2023-06-27T23:52:32.143Z,44.76
2023-06-27T23:55:00.125Z,44.82
2023-06-27T23:57:28.079Z,45.02
2023-06-27T23:59:56.136Z,44.84
